This is the latest recevied weather packets stored in our database for station/object 7L2IWN-13. If no packets are shown the sender has not sent any weather packets the latest 10 day(s).
| Time | Temp. | Humidity | Pressure | Rain* | Wind** | Luminosity | Snow |
|---|---|---|---|---|---|---|---|
| 1787753523 | 26.67° C | 99% | 1009.1 hPa | 0 mm | - | - | - |
| 1787752804 | 26.11° C | 98% | 1008.9 hPa | 0 mm | - | - | - |
| 1787752082 | 26.67° C | 99% | 1009.2 hPa | 0 mm | - | - | - |
| 1787751364 | 26.67° C | 99% | 1008.9 hPa | 0 mm | - | - | - |
| 1787750643 | 26.67° C | 99% | 1009.1 hPa | 0 mm | - | - | - |
| 1787749921 | 26.67° C | 99% | 1008.8 hPa | 0 mm | - | - | - |
| 1787749204 | 26.67° C | 99% | 1008.8 hPa | 0 mm | - | - | - |
| 1787748483 | 26.67° C | 98% | 1008.9 hPa | 0 mm | - | - | - |
| 1787747761 | 26.67° C | 98% | 1009.2 hPa | 0 mm | - | - | - |
| 1787747044 | 27.22° C | 97% | 1009.3 hPa | 0 mm | - | - | - |
| 1787746323 | 27.22° C | 96% | 1009.5 hPa | 0 mm | - | - | - |
| 1787745607 | 27.22° C | 96% | 1009.9 hPa | 0 mm | - | - | - |
| 1787744882 | 27.22° C | 95% | 1010.2 hPa | 0 mm | - | - | - |
| 1787744164 | 27.22° C | 96% | 1010.4 hPa | 0 mm | - | - | - |
| 1787743443 | 27.22° C | 96% | 1010.2 hPa | 0 mm | - | - | - |
| 1787742724 | 27.78° C | 94% | 1009.9 hPa | 0 mm | - | - | - |
| 1787742003 | 27.78° C | 94% | 1009.5 hPa | 0 mm | - | - | - |
| 1787741283 | 27.78° C | 94% | 1009.1 hPa | 0 mm | - | - | - |
| 1787740562 | 27.78° C | 95% | 1008.9 hPa | 0 mm | - | - | - |
| 1787739844 | 28.33° C | 93% | 1008.7 hPa | 0 mm | - | - | - |
| 1787739124 | 28.33° C | 93% | 1009.1 hPa | 0 mm | - | - | - |
| 1787738403 | 28.33° C | 92% | 1009 hPa | 0 mm | - | - | - |
| 1787737683 | 29.44° C | 89% | 1008.7 hPa | 0 mm | - | - | - |
| 1787736963 | 28.89° C | 91% | 1008.2 hPa | 0 mm | - | - | - |
| 1787736242 | 28.89° C | 89% | 1008.2 hPa | 0 mm | - | - | - |
* Rain latest hour (hover to see other rain measurements)
** Current wind speed in m/s (hover to see current wind gust speed)